createdAt,value
2023-03-05T00:02:01.366Z,5.00
2023-03-05T00:04:28.301Z,5.00
2023-03-05T00:06:55.828Z,4.90
2023-03-05T00:09:22.753Z,4.90
2023-03-05T00:11:49.648Z,4.90
2023-03-05T00:14:16.614Z,4.80
2023-03-05T00:16:43.497Z,4.80
2023-03-05T00:19:10.501Z,4.80
2023-03-05T00:21:39.815Z,4.70
2023-03-05T00:24:10.637Z,4.70
2023-03-05T00:26:39.296Z,4.70
2023-03-05T00:29:08.130Z,4.60
2023-03-05T00:31:36.068Z,4.60
2023-03-05T00:34:06.198Z,4.60
2023-03-05T00:36:33.198Z,4.60
2023-03-05T00:39:00.133Z,4.50
2023-03-05T00:41:28.076Z,4.50
2023-03-05T00:43:55.064Z,4.60
2023-03-05T00:46:23.101Z,4.60
2023-03-05T00:48:50.357Z,4.50
2023-03-05T00:51:17.302Z,4.50
2023-03-05T00:53:44.245Z,4.50
2023-03-05T00:56:11.424Z,4.50
2023-03-05T00:58:38.522Z,4.50
2023-03-05T01:01:06.054Z,4.50
2023-03-05T01:03:34.343Z,4.50
2023-03-05T01:06:01.976Z,4.50
2023-03-05T01:08:28.906Z,4.40
2023-03-05T01:10:55.717Z,4.40
2023-03-05T01:13:22.688Z,4.40
2023-03-05T01:15:50.993Z,4.30
2023-03-05T01:18:19.599Z,4.30
2023-03-05T01:20:47.086Z,4.30
2023-03-05T01:23:14.029Z,4.30
2023-03-05T01:25:41.159Z,4.30
2023-03-05T01:28:08.310Z,4.30
2023-03-05T01:30:35.158Z,4.20
2023-03-05T01:33:02.353Z,4.20
2023-03-05T01:35:29.598Z,4.10
2023-03-05T01:37:56.556Z,4.10
2023-03-05T01:40:29.206Z,4.10
2023-03-05T01:43:11.830Z,4.10
2023-03-05T01:45:40.048Z,4.10
2023-03-05T01:48:06.873Z,4.00
2023-03-05T01:50:33.890Z,4.00
2023-03-05T01:53:05.248Z,4.00
2023-03-05T01:55:33.965Z,4.00
2023-03-05T01:58:03.937Z,4.00
2023-03-05T02:00:44.409Z,4.00
2023-03-05T02:03:12.412Z,3.90
2023-03-05T02:05:41.307Z,3.90
2023-03-05T02:08:09.997Z,3.80
2023-03-05T02:10:39.707Z,3.80
2023-03-05T02:13:09.970Z,3.90
2023-03-05T02:15:38.519Z,3.80
2023-03-05T02:18:06.980Z,3.80
2023-03-05T02:20:47.103Z,3.80
2023-03-05T02:23:14.630Z,3.80
2023-03-05T02:25:41.480Z,3.80
2023-03-05T02:28:29.556Z,3.80
2023-03-05T02:30:56.521Z,3.80
2023-03-05T02:33:23.426Z,3.70
2023-03-05T02:35:51.510Z,3.70
2023-03-05T02:38:20.116Z,3.70
2023-03-05T02:40:46.929Z,3.60
2023-03-05T02:43:13.812Z,3.60
2023-03-05T02:45:40.634Z,3.60
2023-03-05T02:48:07.749Z,3.50
2023-03-05T02:50:34.973Z,3.40
2023-03-05T02:53:01.890Z,3.40
2023-03-05T02:55:28.712Z,3.30
2023-03-05T02:57:55.509Z,3.30
2023-03-05T03:00:22.557Z,3.30
2023-03-05T03:02:49.430Z,3.30
2023-03-05T03:05:16.412Z,3.30
2023-03-05T03:07:43.172Z,3.20
2023-03-05T03:10:11.046Z,3.20
2023-03-05T03:12:44.631Z,3.20
2023-03-05T03:15:13.155Z,3.10
2023-03-05T03:17:40.091Z,3.10
2023-03-05T03:20:09.403Z,3.20
2023-03-05T03:22:36.641Z,3.20
2023-03-05T03:25:04.471Z,3.20
2023-03-05T03:27:31.299Z,3.20
2023-03-05T03:30:02.623Z,3.20
2023-03-05T03:32:29.592Z,3.10
2023-03-05T03:34:57.033Z,3.10
2023-03-05T03:37:23.863Z,3.10
2023-03-05T03:39:50.711Z,3.10
2023-03-05T03:42:18.445Z,3.10
2023-03-05T03:44:45.259Z,3.00
2023-03-05T03:47:12.045Z,3.00
2023-03-05T03:49:39.651Z,3.00
2023-03-05T03:52:06.725Z,3.00
2023-03-05T03:54:34.049Z,3.10
2023-03-05T03:57:01.018Z,3.00
2023-03-05T03:59:27.938Z,3.00
2023-03-05T04:01:54.739Z,3.00
2023-03-05T04:04:21.754Z,3.00
2023-03-05T04:06:48.634Z,3.00
2023-03-05T04:09:15.459Z,3.00
2023-03-05T04:11:42.271Z,3.00
2023-03-05T04:14:09.043Z,3.00
2023-03-05T04:16:35.966Z,3.00
2023-03-05T04:19:02.782Z,3.00
2023-03-05T04:21:29.669Z,3.00
2023-03-05T04:23:56.424Z,3.00
2023-03-05T04:26:23.221Z,3.00
2023-03-05T04:28:50.162Z,3.00
2023-03-05T04:31:17.500Z,3.00
2023-03-05T04:33:45.372Z,2.90
2023-03-05T04:36:12.207Z,3.00
2023-03-05T04:38:38.999Z,3.00
2023-03-05T04:41:05.854Z,3.00
2023-03-05T04:43:32.645Z,3.00
2023-03-05T04:45:59.708Z,2.90
2023-03-05T04:48:26.600Z,2.90
2023-03-05T04:50:53.416Z,2.90
2023-03-05T04:53:20.238Z,2.90
2023-03-05T04:55:52.698Z,3.00
2023-03-05T04:58:19.554Z,2.90
2023-03-05T05:00:46.381Z,3.00
2023-03-05T05:03:13.489Z,3.00
2023-03-05T05:05:40.385Z,2.90
2023-03-05T05:08:07.224Z,3.00
2023-03-05T05:10:34.004Z,3.00
2023-03-05T05:13:00.813Z,3.00
2023-03-05T05:15:27.969Z,2.90
2023-03-05T05:17:54.744Z,3.00
2023-03-05T05:20:21.614Z,3.00
2023-03-05T05:22:48.460Z,3.00
2023-03-05T05:25:15.249Z,3.00
2023-03-05T05:27:42.081Z,3.00
2023-03-05T05:30:09.923Z,3.00
2023-03-05T05:32:36.867Z,3.00
2023-03-05T05:35:03.972Z,3.00
2023-03-05T05:37:30.943Z,3.10
2023-03-05T05:39:57.925Z,3.10
2023-03-05T05:42:25.524Z,3.10
2023-03-05T05:44:53.026Z,3.00
2023-03-05T05:47:19.844Z,3.10
2023-03-05T05:49:46.810Z,3.00
2023-03-05T05:52:13.942Z,3.10
2023-03-05T05:54:40.728Z,3.10
2023-03-05T05:57:07.777Z,3.10
2023-03-05T05:59:34.693Z,3.10
2023-03-05T06:02:01.535Z,3.00
2023-03-05T06:04:28.374Z,3.00
2023-03-05T06:06:55.211Z,3.00
2023-03-05T06:09:22.086Z,3.00
2023-03-05T06:11:48.928Z,3.10
2023-03-05T06:14:15.942Z,3.00
2023-03-05T06:16:42.966Z,3.00
2023-03-05T06:19:12.280Z,3.10
2023-03-05T06:21:39.228Z,3.00
2023-03-05T06:24:06.299Z,3.00
2023-03-05T06:26:33.170Z,3.00
2023-03-05T06:29:00.002Z,3.00
2023-03-05T06:31:28.780Z,3.00
2023-03-05T06:33:57.589Z,3.00
2023-03-05T06:36:25.388Z,3.00
2023-03-05T06:38:53.457Z,3.00
2023-03-05T06:41:23.167Z,3.00
2023-03-05T06:43:50.193Z,3.00
2023-03-05T06:46:26.219Z,3.00
2023-03-05T06:48:56.079Z,3.00
2023-03-05T06:51:24.771Z,2.90
2023-03-05T06:53:52.433Z,2.90
2023-03-05T06:56:20.277Z,2.90
2023-03-05T06:58:49.072Z,2.90
2023-03-05T07:01:16.199Z,2.80
2023-03-05T07:03:44.052Z,2.80
2023-03-05T07:06:13.475Z,2.80
2023-03-05T07:08:40.324Z,2.90
2023-03-05T07:11:16.430Z,2.90
2023-03-05T07:13:43.879Z,2.90
2023-03-05T07:16:14.661Z,2.90
2023-03-05T07:18:41.545Z,2.90
2023-03-05T07:21:09.317Z,3.00
2023-03-05T07:23:36.521Z,3.00
2023-03-05T07:26:04.672Z,3.00
2023-03-05T07:28:32.010Z,3.10
2023-03-05T07:31:04.542Z,3.10
2023-03-05T07:33:32.272Z,3.10
2023-03-05T07:35:59.363Z,3.10
2023-03-05T07:38:26.298Z,3.10
2023-03-05T07:40:53.355Z,3.10
2023-03-05T07:43:20.117Z,3.10
2023-03-05T07:45:46.991Z,3.10
2023-03-05T07:48:17.354Z,3.10
2023-03-05T07:50:44.565Z,3.10
2023-03-05T07:53:13.009Z,3.10
2023-03-05T07:55:46.961Z,3.10
2023-03-05T07:58:14.252Z,3.20
2023-03-05T08:00:41.348Z,3.10
2023-03-05T08:03:08.332Z,3.10
2023-03-05T08:05:35.325Z,3.20
2023-03-05T08:08:02.107Z,3.20
2023-03-05T08:10:28.988Z,3.20
2023-03-05T08:12:55.887Z,3.20
2023-03-05T08:15:22.731Z,3.20
2023-03-05T08:17:49.598Z,3.30
2023-03-05T08:20:16.601Z,3.30
2023-03-05T08:22:43.458Z,3.30
2023-03-05T08:25:10.910Z,3.40
2023-03-05T08:27:45.445Z,3.40
2023-03-05T08:30:18.137Z,3.40
2023-03-05T08:32:44.992Z,3.50
2023-03-05T08:35:12.355Z,3.50
2023-03-05T08:37:39.358Z,3.50
2023-03-05T08:40:06.889Z,3.50
2023-03-05T08:42:33.772Z,3.50
2023-03-05T08:45:00.638Z,3.50
2023-03-05T08:47:28.044Z,3.60
2023-03-05T08:49:55.808Z,3.60
2023-03-05T08:52:23.438Z,3.60
2023-03-05T08:54:50.552Z,3.70
2023-03-05T08:57:17.500Z,3.70
2023-03-05T08:59:44.376Z,3.70
2023-03-05T09:02:13.407Z,3.80
2023-03-05T09:04:40.789Z,3.80
2023-03-05T09:07:07.716Z,3.80
2023-03-05T09:09:34.874Z,3.90
2023-03-05T09:12:02.412Z,3.90
2023-03-05T09:14:29.376Z,4.00
2023-03-05T09:16:57.002Z,4.00
2023-03-05T09:19:24.433Z,4.00
2023-03-05T09:21:51.514Z,4.00
2023-03-05T09:24:18.360Z,4.10
2023-03-05T09:26:45.202Z,4.10
2023-03-05T09:29:12.570Z,4.20
2023-03-05T09:31:39.948Z,4.20
2023-03-05T09:34:08.262Z,4.20
2023-03-05T09:36:35.668Z,4.30
2023-03-05T09:39:04.107Z,4.40
2023-03-05T09:41:44.942Z,4.40
2023-03-05T09:44:15.689Z,4.50
2023-03-05T09:47:13.739Z,4.50
2023-03-05T09:49:53.578Z,4.50
2023-03-05T09:52:23.848Z,4.60
2023-03-05T09:54:55.584Z,4.70
2023-03-05T09:57:27.464Z,4.70
2023-03-05T09:59:58.325Z,4.70
2023-03-05T10:02:31.041Z,4.70
2023-03-05T10:05:05.054Z,4.80
2023-03-05T10:07:34.753Z,4.80
2023-03-05T10:10:02.869Z,4.80
2023-03-05T10:12:43.127Z,4.90
2023-03-05T10:15:16.070Z,4.90
2023-03-05T10:18:07.803Z,5.00
2023-03-05T10:21:01.222Z,5.00
2023-03-05T10:23:57.254Z,5.10
2023-03-05T10:27:05.867Z,5.10
2023-03-05T10:29:44.798Z,5.20
2023-03-05T10:32:33.005Z,5.30
2023-03-05T10:35:20.863Z,5.30
2023-03-05T10:38:20.576Z,5.40
2023-03-05T10:40:51.333Z,5.50
2023-03-05T10:43:43.040Z,5.60
2023-03-05T10:46:16.959Z,5.60
2023-03-05T10:49:13.442Z,5.70
2023-03-05T10:52:09.775Z,5.70
2023-03-05T10:54:38.644Z,5.70
2023-03-05T10:57:14.143Z,5.80
2023-03-05T11:00:07.906Z,5.80
2023-03-05T11:02:34.933Z,5.80
2023-03-05T11:05:02.168Z,5.80
2023-03-05T11:07:33.190Z,5.80
2023-03-05T11:09:59.945Z,5.80
2023-03-05T11:12:29.158Z,5.80
2023-03-05T11:15:14.308Z,5.90
2023-03-05T11:17:49.023Z,6.00
2023-03-05T11:20:28.053Z,6.00
2023-03-05T11:23:17.825Z,6.10
2023-03-05T11:26:02.713Z,6.20
2023-03-05T11:28:34.067Z,6.30
2023-03-05T11:31:20.153Z,6.40
2023-03-05T11:33:57.566Z,6.40
2023-03-05T11:36:26.225Z,6.50
2023-03-05T11:38:59.852Z,6.60
2023-03-05T11:41:30.578Z,6.70
2023-03-05T11:43:59.543Z,6.70
2023-03-05T11:46:27.626Z,6.80
2023-03-05T11:48:54.657Z,6.80
2023-03-05T11:51:29.874Z,6.80
2023-03-05T11:53:59.865Z,6.80
2023-03-05T11:56:32.164Z,6.70
2023-03-05T11:59:05.753Z,6.70
2023-03-05T12:01:35.670Z,6.60
2023-03-05T12:04:03.975Z,6.60
2023-03-05T12:06:49.720Z,6.50
2023-03-05T12:09:21.312Z,6.60
2023-03-05T12:11:51.617Z,6.60
2023-03-05T12:14:29.247Z,6.60
2023-03-05T12:16:59.111Z,6.70
2023-03-05T12:19:34.574Z,6.60
2023-03-05T12:22:15.737Z,6.70
2023-03-05T12:24:43.121Z,6.70
2023-03-05T12:27:14.742Z,6.70
2023-03-05T12:29:49.326Z,6.70
2023-03-05T12:32:22.469Z,6.80
2023-03-05T12:34:59.790Z,6.70
2023-03-05T12:37:27.292Z,6.60
2023-03-05T12:40:08.600Z,6.50
2023-03-05T12:42:40.583Z,6.50
2023-03-05T12:45:14.563Z,6.50
2023-03-05T12:47:45.794Z,6.50
2023-03-05T12:50:45.190Z,6.50
2023-03-05T12:53:14.668Z,6.50
2023-03-05T12:55:47.502Z,6.50
2023-03-05T12:58:38.842Z,6.50
2023-03-05T13:01:11.576Z,6.60
2023-03-05T13:03:53.322Z,6.70
2023-03-05T13:06:26.441Z,6.70
2023-03-05T13:09:23.875Z,6.70
2023-03-05T13:11:52.815Z,6.80
2023-03-05T13:14:39.734Z,6.80
2023-03-05T13:17:29.139Z,6.80
2023-03-05T13:19:57.055Z,6.80
2023-03-05T13:22:24.688Z,6.80
2023-03-05T13:25:11.013Z,6.80
2023-03-05T13:27:37.829Z,6.80
2023-03-05T13:30:05.151Z,6.80
2023-03-05T13:32:33.281Z,6.80
2023-03-05T13:35:01.378Z,6.80
2023-03-05T13:37:31.824Z,6.90
2023-03-05T13:40:23.958Z,6.90
2023-03-05T13:42:53.282Z,6.90
2023-03-05T13:45:31.403Z,6.90
2023-03-05T13:48:03.795Z,6.80
2023-03-05T13:50:35.917Z,6.80
2023-03-05T13:53:19.220Z,6.80
2023-03-05T13:55:47.181Z,6.80
2023-03-05T13:58:44.256Z,6.80
2023-03-05T14:01:38.972Z,6.80
2023-03-05T14:04:15.527Z,6.70
2023-03-05T14:06:49.317Z,6.60
2023-03-05T14:09:24.795Z,6.60
2023-03-05T14:12:03.954Z,6.60
2023-03-05T14:14:36.802Z,6.50
2023-03-05T14:17:23.314Z,6.40
2023-03-05T14:19:50.230Z,6.30
2023-03-05T14:22:37.806Z,6.20
2023-03-05T14:25:06.562Z,6.40
2023-03-05T14:27:36.912Z,6.40
2023-03-05T14:30:05.421Z,6.50
2023-03-05T14:32:35.180Z,6.50
2023-03-05T14:35:05.226Z,6.50
2023-03-05T14:37:45.048Z,6.40
2023-03-05T14:40:12.225Z,6.40
2023-03-05T14:42:59.533Z,6.40
2023-03-05T14:45:34.636Z,6.40
2023-03-05T14:48:03.106Z,6.50
2023-03-05T14:50:31.349Z,6.50
2023-03-05T14:53:00.546Z,6.50
2023-03-05T14:55:31.947Z,6.50
2023-03-05T14:58:13.772Z,6.50
2023-03-05T15:00:41.146Z,6.40
2023-03-05T15:03:11.774Z,6.40
2023-03-05T15:05:39.057Z,6.40
2023-03-05T15:08:06.190Z,6.40
2023-03-05T15:10:32.981Z,6.40
2023-03-05T15:12:59.835Z,6.40
2023-03-05T15:15:27.084Z,6.50
2023-03-05T15:17:56.117Z,6.40
2023-03-05T15:20:26.555Z,6.40
2023-03-05T15:22:53.466Z,6.40
2023-03-05T15:25:21.693Z,6.40
2023-03-05T15:27:48.556Z,6.40
2023-03-05T15:30:21.370Z,6.40
2023-03-05T15:32:48.304Z,6.40
2023-03-05T15:35:15.218Z,6.40
2023-03-05T15:37:42.025Z,6.40
2023-03-05T15:40:09.618Z,6.40
2023-03-05T15:42:36.502Z,6.30
2023-03-05T15:45:04.106Z,6.30
2023-03-05T15:47:33.388Z,6.30
2023-03-05T15:50:00.492Z,6.30
2023-03-05T15:52:27.354Z,6.20
2023-03-05T15:54:54.117Z,6.20
2023-03-05T15:57:23.973Z,6.20
2023-03-05T15:59:50.821Z,6.20
2023-03-05T16:02:18.779Z,6.10
2023-03-05T16:04:45.802Z,6.10
2023-03-05T16:07:14.507Z,6.10
2023-03-05T16:09:44.034Z,6.10
2023-03-05T16:12:15.144Z,6.10
2023-03-05T16:14:42.499Z,6.10
2023-03-05T16:17:09.369Z,6.00
2023-03-05T16:19:39.625Z,6.00
2023-03-05T16:22:06.434Z,5.90
2023-03-05T16:24:33.416Z,5.90
2023-03-05T16:27:00.354Z,6.00
2023-03-05T16:29:30.710Z,6.00
2023-03-05T16:31:58.486Z,6.00
2023-03-05T16:34:25.481Z,6.00
2023-03-05T16:36:53.001Z,6.00
2023-03-05T16:39:22.450Z,6.00
2023-03-05T16:41:50.141Z,5.90
2023-03-05T16:44:16.948Z,5.90
2023-03-05T16:46:49.466Z,5.90
2023-03-05T16:49:16.779Z,5.80
2023-03-05T16:51:43.764Z,5.90
2023-03-05T16:54:11.026Z,5.80
2023-03-05T16:56:38.070Z,5.80
2023-03-05T16:59:04.982Z,5.90
2023-03-05T17:01:31.979Z,5.80
2023-03-05T17:03:59.711Z,5.80
2023-03-05T17:06:29.933Z,5.80
2023-03-05T17:08:57.392Z,5.70
2023-03-05T17:11:25.860Z,5.70
2023-03-05T17:13:53.052Z,5.70
2023-03-05T17:16:20.997Z,5.70
2023-03-05T17:18:48.514Z,5.70
2023-03-05T17:21:16.238Z,5.70
2023-03-05T17:23:43.191Z,5.70
2023-03-05T17:26:12.809Z,5.70
2023-03-05T17:28:40.541Z,5.70
2023-03-05T17:31:07.644Z,5.60
2023-03-05T17:33:39.371Z,5.60
2023-03-05T17:36:06.619Z,5.50
2023-03-05T17:38:33.454Z,5.50
2023-03-05T17:41:00.425Z,5.50
2023-03-05T17:43:27.509Z,5.40
2023-03-05T17:45:59.493Z,5.40
2023-03-05T17:48:27.137Z,5.40
2023-03-05T17:50:54.727Z,5.40
2023-03-05T17:53:22.514Z,5.40
2023-03-05T17:55:49.413Z,5.40
2023-03-05T17:58:16.729Z,5.30
2023-03-05T18:00:44.311Z,5.30
2023-03-05T18:03:11.405Z,5.30
2023-03-05T18:05:38.458Z,5.30
2023-03-05T18:08:05.385Z,5.30
2023-03-05T18:10:32.763Z,5.20
2023-03-05T18:12:59.931Z,5.30
2023-03-05T18:15:27.844Z,5.10
2023-03-05T18:17:54.776Z,5.10
2023-03-05T18:20:30.683Z,5.10
2023-03-05T18:22:58.713Z,5.10
2023-03-05T18:25:31.228Z,5.10
2023-03-05T18:28:03.030Z,5.10
2023-03-05T18:30:30.752Z,5.10
2023-03-05T18:32:57.902Z,5.00
2023-03-05T18:35:24.943Z,5.00
2023-03-05T18:37:52.071Z,5.00
2023-03-05T18:40:22.275Z,5.00
2023-03-05T18:42:49.744Z,5.00
2023-03-05T18:45:18.981Z,5.00
2023-03-05T18:47:46.985Z,4.90
2023-03-05T18:50:16.865Z,4.90
2023-03-05T18:52:44.100Z,4.90
2023-03-05T18:55:23.226Z,4.90
2023-03-05T18:57:51.348Z,4.80
2023-03-05T19:00:21.013Z,4.80
2023-03-05T19:02:48.019Z,4.80
2023-03-05T19:05:15.979Z,4.70
2023-03-05T19:07:43.033Z,4.70
2023-03-05T19:10:11.504Z,4.70
2023-03-05T19:13:39.804Z,4.70
2023-03-05T19:16:17.807Z,4.60
2023-03-05T19:19:20.530Z,4.60
2023-03-05T19:21:49.507Z,4.60
2023-03-05T19:24:16.712Z,4.70
2023-03-05T19:26:44.176Z,4.60
2023-03-05T19:29:11.398Z,4.60
2023-03-05T19:31:38.343Z,4.60
2023-03-05T19:34:05.895Z,4.50
2023-03-05T19:36:34.394Z,4.60
2023-03-05T19:39:04.173Z,4.50
2023-03-05T19:41:30.970Z,4.50
2023-03-05T19:43:57.894Z,4.50
2023-03-05T19:46:25.049Z,4.50
2023-03-05T19:48:51.910Z,4.50
2023-03-05T19:51:20.699Z,4.50
2023-03-05T19:53:48.097Z,4.50
2023-03-05T19:56:18.690Z,4.50
2023-03-05T19:58:46.641Z,4.50
2023-03-05T20:01:15.487Z,4.50
2023-03-05T20:03:47.034Z,4.40
2023-03-05T20:06:14.804Z,4.40
2023-03-05T20:08:41.771Z,4.40
2023-03-05T20:11:11.156Z,4.40
2023-03-05T20:13:38.712Z,4.40
2023-03-05T20:16:12.588Z,4.40
2023-03-05T20:18:39.708Z,4.40
2023-03-05T20:21:06.612Z,4.30
2023-03-05T20:23:33.556Z,4.30
2023-03-05T20:26:00.480Z,4.30
2023-03-05T20:28:27.541Z,4.30
2023-03-05T20:31:00.073Z,4.30
2023-03-05T20:33:28.591Z,4.30
2023-03-05T20:35:56.543Z,4.30
2023-03-05T20:38:29.753Z,4.30
2023-03-05T20:41:05.533Z,4.30
2023-03-05T20:43:41.266Z,4.30
2023-03-05T20:46:16.501Z,4.20
2023-03-05T20:48:43.735Z,4.20
2023-03-05T20:51:19.297Z,4.20
2023-03-05T20:53:46.270Z,4.20
2023-03-05T20:56:13.180Z,4.20
2023-03-05T20:58:40.090Z,4.20
2023-03-05T21:01:06.944Z,4.20
2023-03-05T21:03:33.928Z,4.10
2023-03-05T21:06:02.784Z,4.10
2023-03-05T21:08:29.625Z,4.10
2023-03-05T21:10:56.554Z,4.10
2023-03-05T21:13:23.362Z,4.10
2023-03-05T21:15:50.218Z,4.00
2023-03-05T21:18:17.275Z,4.00
2023-03-05T21:20:44.283Z,4.00
2023-03-05T21:23:11.118Z,4.00
2023-03-05T21:25:38.052Z,4.00
2023-03-05T21:28:18.781Z,4.00
2023-03-05T21:30:51.904Z,4.00
2023-03-05T21:33:27.313Z,4.00
2023-03-05T21:35:54.938Z,3.90
2023-03-05T21:38:23.205Z,3.90
2023-03-05T21:40:50.878Z,3.90
2023-03-05T21:43:22.900Z,3.90
2023-03-05T21:45:52.566Z,3.90
2023-03-05T21:48:20.475Z,3.90
2023-03-05T21:50:47.869Z,3.90
2023-03-05T21:53:16.715Z,3.90
2023-03-05T21:56:26.384Z,3.90
2023-03-05T21:58:53.725Z,3.90
2023-03-05T22:01:21.350Z,3.90
2023-03-05T22:03:48.995Z,3.90
2023-03-05T22:06:17.155Z,3.90
2023-03-05T22:08:44.041Z,3.90
2023-03-05T22:11:15.631Z,3.90
2023-03-05T22:13:42.954Z,3.90
2023-03-05T22:16:10.556Z,3.90
2023-03-05T22:18:37.612Z,3.90
2023-03-05T22:21:05.140Z,3.90
2023-03-05T22:23:34.524Z,3.90
2023-03-05T22:26:04.552Z,3.90
2023-03-05T22:28:32.277Z,3.90
2023-03-05T22:30:59.411Z,3.90
2023-03-05T22:33:27.516Z,3.90
2023-03-05T22:35:54.560Z,3.80
2023-03-05T22:38:21.878Z,3.80
2023-03-05T22:40:49.712Z,3.80
2023-03-05T22:43:18.129Z,3.80
2023-03-05T22:45:45.461Z,3.80
2023-03-05T22:48:12.712Z,3.80
2023-03-05T22:50:41.158Z,3.80
2023-03-05T22:53:08.649Z,3.80
2023-03-05T22:55:41.223Z,3.70
2023-03-05T22:58:08.097Z,3.70
2023-03-05T23:00:35.059Z,3.70
2023-03-05T23:03:02.049Z,3.70
2023-03-05T23:05:28.940Z,3.70
2023-03-05T23:07:55.753Z,3.70
2023-03-05T23:10:26.967Z,3.70
2023-03-05T23:12:55.643Z,3.60
2023-03-05T23:15:25.595Z,3.60
2023-03-05T23:17:52.828Z,3.60
2023-03-05T23:20:22.266Z,3.60
2023-03-05T23:22:49.976Z,3.60
2023-03-05T23:25:16.826Z,3.60
2023-03-05T23:27:44.048Z,3.60
2023-03-05T23:30:19.547Z,3.60
2023-03-05T23:32:59.372Z,3.60
2023-03-05T23:35:34.822Z,3.60
2023-03-05T23:38:04.344Z,3.50
2023-03-05T23:40:43.040Z,3.50
2023-03-05T23:43:09.934Z,3.50
2023-03-05T23:45:36.787Z,3.50
2023-03-05T23:48:04.168Z,3.50
2023-03-05T23:50:33.625Z,3.40
2023-03-05T23:53:02.053Z,3.50
2023-03-05T23:55:35.376Z,3.40
2023-03-05T23:58:02.505Z,3.40
